Time;durP1;ratioP1;P1;durP2;ratioP2;P2;SDS_P1;SDS_P2;PMS_P1;PMS_P2;Temp;Humidity;BMP_temperature;BMP_pressure;BME280_temperature;BME280_humidity;BME280_pressure;Samples;Min_cycle;Max_cycle;Signal;HPM_P1;HPM_P2
2023/05/14 00:01:36;;;;;;;1.58;1.10;;;;;;;35.18;15.03;100946.16;4816056;29;20062;-81
2023/05/14 00:04:15;;;;;;;3.30;1.20;;;;;;;35.19;16.13;100943.38;4814888;29;20151;-82
2023/05/14 00:06:45;;;;;;;1.73;1.00;;;;;;;35.16;13.73;100938.22;4814912;29;20086;-82
2023/05/14 00:09:14;;;;;;;2.53;1.30;;;;;;;35.14;13.63;100939.28;4818686;29;20517;-80
2023/05/14 00:11:43;;;;;;;1.88;1.23;;;;;;;35.12;13.92;100936.72;4813498;29;20050;-83
2023/05/14 00:14:11;;;;;;;2.90;1.33;;;;;;;35.03;14.27;100926.56;4820167;29;20621;-80
2023/05/14 00:16:40;;;;;;;2.28;1.00;;;;;;;35.03;15.42;100934.66;4818168;29;20088;-82
2023/05/14 00:19:08;;;;;;;2.85;1.00;;;;;;;34.98;15.58;100934.09;4818053;29;20070;-82
2023/05/14 00:21:37;;;;;;;2.63;1.30;;;;;;;34.81;14.39;100933.44;4819129;29;20516;-82
2023/05/14 00:24:08;;;;;;;4.63;1.30;;;;;;;34.73;14.23;100924.22;4817357;29;20097;-82
2023/05/14 00:26:36;;;;;;;4.20;1.40;;;;;;;34.70;14.74;100925.25;4816217;29;20119;-79
2023/05/14 00:29:05;;;;;;;4.97;1.33;;;;;;;34.68;13.76;100915.59;4819554;29;20054;-82
2023/05/14 00:31:33;;;;;;;2.38;1.10;;;;;;;34.70;13.92;100917.19;4817528;29;20129;-80
2023/05/14 00:34:02;;;;;;;6.47;1.30;;;;;;;34.69;14.98;100923.56;4815157;29;20620;-79
2023/05/14 00:36:30;;;;;;;2.45;1.25;;;;;;;34.66;13.88;100918.41;4814525;29;20046;-79
2023/05/14 00:38:59;;;;;;;1.35;1.02;;;;;;;34.66;14.80;100923.78;4818152;29;20049;-78
2023/05/14 00:41:32;;;;;;;2.00;1.30;;;;;;;34.65;16.02;100913.97;4817255;29;20110;-79
2023/05/14 00:44:04;;;;;;;1.83;1.10;;;;;;;34.64;14.98;100925.72;4810323;29;20621;-78
2023/05/14 00:46:33;;;;;;;1.92;1.48;;;;;;;34.56;14.25;100911.91;4816255;29;20473;-82
2023/05/14 00:49:01;;;;;;;4.35;1.23;;;;;;;34.57;15.08;100913.63;4812951;29;20058;-79
2023/05/14 00:51:30;;;;;;;1.95;1.20;;;;;;;34.53;14.39;100906.75;4816403;29;20065;-79
2023/05/14 00:53:59;;;;;;;1.88;1.00;;;;;;;34.44;14.39;100902.88;4806394;29;20209;-81
2023/05/14 00:56:29;;;;;;;3.45;1.33;;;;;;;34.33;14.30;100898.22;4796332;29;20272;-78
2023/05/14 00:58:58;;;;;;;3.50;1.60;;;;;;;34.33;14.76;100913.47;4794903;29;20062;-78
2023/05/14 01:01:27;;;;;;;1.50;1.02;;;;;;;34.29;15.33;100907.44;4796643;29;20051;-84
2023/05/14 01:03:56;;;;;;;1.67;1.33;;;;;;;34.25;14.70;100907.75;4806854;29;20137;-82
2023/05/14 01:06:31;;;;;;;2.58;1.40;;;;;;;34.21;15.28;100907.97;4792652;29;20086;-79
2023/05/14 01:09:06;;;;;;;4.28;1.45;;;;;;;34.14;15.34;100903.13;4800521;29;20054;-81
2023/05/14 01:11:45;;;;;;;2.00;1.20;;;;;;;34.04;14.52;100904.66;4799132;29;20573;-80
2023/05/14 01:14:22;;;;;;;3.65;1.40;;;;;;;34.01;16.12;100909.28;4797181;29;20505;-79
2023/05/14 01:16:53;;;;;;;2.50;1.48;;;;;;;33.97;15.90;100904.19;4794805;29;20051;-80
2023/05/14 01:19:28;;;;;;;3.17;1.40;;;;;;;33.89;14.65;100907.41;4796015;29;20113;-79
2023/05/14 01:21:58;;;;;;;6.95;1.27;;;;;;;33.78;14.76;100904.56;4794591;29;20864;-79
2023/05/14 01:24:27;;;;;;;4.72;1.35;;;;;;;33.68;14.71;100908.84;4799998;29;20573;-79
2023/05/14 01:27:04;;;;;;;4.30;1.25;;;;;;;33.59;15.02;100905.78;4800705;29;20158;-87
2023/05/14 01:29:38;;;;;;;3.38;1.52;;;;;;;33.48;15.62;100908.25;4800289;29;20054;-79
2023/05/14 01:32:08;;;;;;;4.55;1.20;;;;;;;33.36;16.06;100893.81;4797843;29;20569;-81
2023/05/14 01:34:38;;;;;;;1.77;1.15;;;;;;;33.32;15.18;100907.53;4798470;29;20057;-80
2023/05/14 01:37:11;;;;;;;3.08;1.08;;;;;;;33.30;15.91;100909.44;4791008;29;20595;-81
2023/05/14 01:39:40;;;;;;;5.63;1.50;;;;;;;33.22;15.82;100906.41;4788710;29;20054;-80
2023/05/14 01:42:10;;;;;;;2.65;1.45;;;;;;;33.11;15.49;100894.50;4793772;29;20055;-82
2023/05/14 01:44:39;;;;;;;4.50;1.40;;;;;;;33.13;16.88;100899.78;4797586;29;20059;-81
2023/05/14 01:47:07;;;;;;;4.57;1.50;;;;;;;33.08;16.14;100893.81;4796902;29;20087;-79
2023/05/14 01:49:36;;;;;;;1.90;1.20;;;;;;;32.99;16.08;100892.56;4795399;29;20070;-78
2023/05/14 01:52:04;;;;;;;3.47;1.13;;;;;;;32.94;15.95;100898.22;4798870;29;20066;-82
2023/05/14 01:54:35;;;;;;;2.08;1.05;;;;;;;32.88;15.03;100893.22;4809540;29;20050;-80
2023/05/14 01:57:03;;;;;;;2.17;1.13;;;;;;;32.83;15.09;100889.97;4810541;29;20109;-83
2023/05/14 01:59:32;;;;;;;2.47;1.05;;;;;;;32.76;15.80;100897.53;4818716;29;20053;-81
2023/05/14 02:02:00;;;;;;;2.65;1.00;;;;;;;32.69;15.46;100888.16;4811552;29;20131;-79
2023/05/14 02:04:29;;;;;;;3.88;1.10;;;;;;;32.65;15.11;100881.25;4811837;29;20054;-80
2023/05/14 02:06:57;;;;;;;4.68;1.40;;;;;;;32.65;15.25;100894.66;4816976;29;20062;-83
2023/05/14 02:09:26;;;;;;;5.00;1.20;;;;;;;32.62;14.99;100900.22;4816685;29;20055;-84
2023/05/14 02:11:56;;;;;;;1.67;1.10;;;;;;;32.53;14.98;100895.41;4812814;29;20054;-80
2023/05/14 02:14:25;;;;;;;5.55;1.25;;;;;;;32.50;14.68;100904.44;4816983;29;20050;-82
2023/05/14 02:16:53;;;;;;;4.78;1.20;;;;;;;32.42;15.24;100901.38;4818049;29;20458;-82
2023/05/14 02:19:22;;;;;;;3.33;1.17;;;;;;;32.34;14.65;100899.16;4820234;29;20122;-81
2023/05/14 02:21:50;;;;;;;2.85;1.25;;;;;;;32.33;15.50;100899.25;4818367;29;20100;-80
2023/05/14 02:24:19;;;;;;;2.80;1.52;;;;;;;32.19;15.29;100902.72;4816537;29;20066;-80
2023/05/14 02:26:48;;;;;;;2.35;1.02;;;;;;;32.09;15.47;100897.06;4819833;29;20154;-80
2023/05/14 02:29:18;;;;;;;5.35;1.17;;;;;;;32.02;15.05;100897.50;4818168;29;20470;-82
2023/05/14 02:31:46;;;;;;;5.03;1.00;;;;;;;31.98;14.74;100906.66;4810491;29;20050;-82
2023/05/14 02:34:15;;;;;;;2.40;1.20;;;;;;;31.90;15.21;100899.88;4820144;29;20066;-82
2023/05/14 02:36:43;;;;;;;2.03;0.90;;;;;;;31.83;15.89;100898.53;4819909;29;20063;-83
2023/05/14 02:39:12;;;;;;;3.92;1.00;;;;;;;31.75;15.07;100902.59;4819248;29;20062;-80
2023/05/14 02:41:40;;;;;;;4.38;1.10;;;;;;;31.72;15.54;100903.63;4820540;29;20092;-80
2023/05/14 02:44:09;;;;;;;4.28;1.17;;;;;;;31.67;16.09;100909.22;4812177;29;20584;-81
2023/05/14 02:46:39;;;;;;;3.75;0.95;;;;;;;31.63;15.46;100906.81;4815788;29;20062;-81
2023/05/14 02:49:08;;;;;;;4.18;1.15;;;;;;;31.57;16.19;100896.50;4814120;29;20513;-80
2023/05/14 02:51:37;;;;;;;3.97;1.23;;;;;;;31.49;16.18;100908.44;4819481;29;20068;-82
2023/05/14 02:54:06;;;;;;;2.88;0.98;;;;;;;31.43;16.28;100911.47;4797013;29;20587;-80
2023/05/14 02:56:34;;;;;;;3.35;1.10;;;;;;;31.35;17.39;100904.78;4799374;29;20126;-80
2023/05/14 02:59:03;;;;;;;3.33;1.10;;;;;;;31.28;17.05;100904.28;4801383;29;20556;-81
2023/05/14 03:01:31;;;;;;;7.18;0.95;;;;;;;31.21;17.44;100905.56;4801705;29;20058;-79
2023/05/14 03:04:01;;;;;;;4.00;0.98;;;;;;;31.14;16.96;100906.84;4794337;29;20058;-81
2023/05/14 03:06:30;;;;;;;1.77;1.00;;;;;;;31.06;18.19;100910.78;4800840;29;20050;-81
2023/05/14 03:08:58;;;;;;;3.90;1.10;;;;;;;31.00;18.17;100908.44;4798656;29;20157;-83
2023/05/14 03:11:27;;;;;;;2.72;1.48;;;;;;;30.95;18.73;100913.19;4797855;29;20107;-84
2023/05/14 03:13:56;;;;;;;2.58;0.90;;;;;;;30.87;18.37;100921.56;4803537;29;20161;-82
2023/05/14 03:16:25;;;;;;;4.53;0.85;;;;;;;30.80;19.69;100919.28;4792536;29;20150;-83
2023/05/14 03:18:53;;;;;;;3.05;0.98;;;;;;;30.72;19.20;100922.38;4801782;29;20118;-83
2023/05/14 03:21:23;;;;;;;4.15;1.20;;;;;;;30.65;20.21;100924.50;4795203;29;20047;-81
2023/05/14 03:23:53;;;;;;;4.45;0.90;;;;;;;30.56;20.21;100924.97;4793183;29;20115;-84
2023/05/14 03:26:22;;;;;;;9.57;1.55;;;;;;;30.46;20.35;100926.38;4800734;29;20086;-83
2023/05/14 03:28:50;;;;;;;3.42;1.30;;;;;;;30.35;20.83;100924.25;4798841;29;20047;-82
2023/05/14 03:31:19;;;;;;;5.32;1.33;;;;;;;30.20;20.79;100917.84;4794251;29;20569;-83
2023/05/14 03:33:48;;;;;;;2.45;1.50;;;;;;;30.12;20.72;100930.69;4792591;29;20070;-83
2023/05/14 03:36:16;;;;;;;5.68;1.20;;;;;;;30.01;21.47;100931.25;4796971;29;20854;-84
2023/05/14 03:38:46;;;;;;;7.03;1.33;;;;;;;29.91;21.14;100932.63;4799037;29;20050;-82
2023/05/14 03:41:16;;;;;;;4.18;1.27;;;;;;;29.82;21.63;100939.25;4801064;29;20062;-81
2023/05/14 03:43:45;;;;;;;3.05;1.35;;;;;;;29.72;22.48;100937.97;4796951;29;20058;-82
2023/05/14 03:46:14;;;;;;;7.13;1.23;;;;;;;29.61;22.50;100938.44;4795924;29;20155;-82
2023/05/14 03:48:42;;;;;;;4.03;1.40;;;;;;;29.51;22.47;100944.31;4789042;29;20114;-83
2023/05/14 03:51:11;;;;;;;5.88;1.10;;;;;;;29.39;23.26;100940.38;4792865;29;20111;-82
2023/05/14 03:53:39;;;;;;;4.03;1.58;;;;;;;29.29;23.07;100945.28;4797470;29;20059;-83
2023/05/14 03:56:09;;;;;;;2.97;1.40;;;;;;;29.17;23.51;100936.03;4807480;29;20054;-82
2023/05/14 03:58:38;;;;;;;7.70;1.63;;;;;;;29.06;23.84;100942.75;4809168;29;20134;-83
2023/05/14 04:01:07;;;;;;;3.70;1.30;;;;;;;28.95;24.10;100946.75;4811242;29;20084;-83
2023/05/14 04:03:36;;;;;;;2.58;1.15;;;;;;;28.85;23.94;100947.25;4799222;29;20055;-81
2023/05/14 04:06:04;;;;;;;3.25;1.20;;;;;;;28.72;24.58;100949.56;4797395;29;20051;-81
2023/05/14 04:08:33;;;;;;;4.82;1.10;;;;;;;28.60;24.49;100954.47;4790304;29;20055;-81
2023/05/14 04:11:01;;;;;;;5.85;1.88;;;;;;;28.49;24.76;100953.19;4795062;29;20120;-82
2023/05/14 04:13:32;;;;;;;3.72;1.25;;;;;;;28.37;24.55;100954.56;4798459;29;20061;-81
2023/05/14 04:16:01;;;;;;;3.10;1.23;;;;;;;28.29;24.99;100954.00;4795752;29;20051;-82
2023/05/14 04:18:33;;;;;;;4.57;1.70;;;;;;;28.19;25.25;100966.81;4788451;29;20059;-83
2023/05/14 04:21:02;;;;;;;3.97;1.60;;;;;;;28.09;25.96;100970.78;4802180;29;20413;-81
2023/05/14 04:23:31;;;;;;;2.67;1.08;;;;;;;27.97;26.57;100962.38;4798208;29;20557;-80
2023/05/14 04:26:00;;;;;;;3.65;1.50;;;;;;;27.87;26.44;100970.75;4803907;29;20115;-81
2023/05/14 04:28:28;;;;;;;3.72;1.50;;;;;;;27.76;27.06;100974.69;4818382;29;20062;-84
2023/05/14 04:30:59;;;;;;;5.32;1.73;;;;;;;27.66;27.12;100973.28;4802321;29;20684;-81
2023/05/14 04:33:27;;;;;;;3.17;1.38;;;;;;;27.53;27.08;100972.91;4800437;29;20054;-81
2023/05/14 04:36:04;;;;;;;2.63;1.30;;;;;;;27.44;27.36;100977.69;4798092;29;20066;-84
2023/05/14 04:38:33;;;;;;;3.17;1.17;;;;;;;27.33;27.30;100978.09;4793037;29;20050;-81
2023/05/14 04:41:01;;;;;;;5.60;1.27;;;;;;;27.23;27.99;100974.03;4804646;29;20446;-83
2023/05/14 04:43:30;;;;;;;7.35;2.00;;;;;;;27.13;28.24;100970.81;4805656;29;20052;-81
2023/05/14 04:46:00;;;;;;;4.10;1.27;;;;;;;26.97;28.45;100967.84;4801190;29;20063;-80
2023/05/14 04:48:28;;;;;;;5.45;1.40;;;;;;;26.95;28.40;100970.53;4808736;29;20054;-80
2023/05/14 04:50:57;;;;;;;5.45;1.30;;;;;;;26.89;28.65;100976.09;4799929;29;20084;-80
2023/05/14 04:53:25;;;;;;;5.05;1.20;;;;;;;26.81;28.54;100972.81;4808897;29;20070;-84
2023/05/14 04:55:54;;;;;;;6.18;1.48;;;;;;;26.74;28.95;100982.78;4820492;29;20047;-85
2023/05/14 04:58:23;;;;;;;5.30;1.48;;;;;;;26.65;28.99;100980.44;4820128;29;20064;-84
2023/05/14 05:00:51;;;;;;;3.92;1.27;;;;;;;26.58;29.08;100978.91;4819213;29;20062;-83
2023/05/14 05:03:22;;;;;;;4.90;1.60;;;;;;;26.47;29.04;100981.88;4818512;29;20055;-83
2023/05/14 05:05:50;;;;;;;6.63;1.70;;;;;;;26.37;29.32;100983.09;4809490;29;20054;-83
2023/05/14 05:08:19;;;;;;;8.10;1.77;;;;;;;26.26;29.67;100987.88;4814408;29;20554;-84
2023/05/14 05:10:47;;;;;;;6.82;1.67;;;;;;;26.13;30.00;100982.97;4825833;29;20502;-84
2023/05/14 05:13:16;;;;;;;3.08;1.35;;;;;;;26.06;30.46;100983.22;4812550;29;20050;-83
2023/05/14 05:15:45;;;;;;;6.43;1.60;;;;;;;25.97;30.50;100975.53;4813735;29;20057;-83
2023/05/14 05:18:13;;;;;;;3.05;1.08;;;;;;;25.88;29.90;100974.03;4808515;29;20054;-83
2023/05/14 05:20:43;;;;;;;3.67;1.58;;;;;;;25.73;30.93;100963.88;4812669;29;20142;-84
2023/05/14 05:23:12;;;;;;;8.45;1.30;;;;;;;25.66;30.63;100972.00;4813998;29;20537;-85
2023/05/14 05:25:40;;;;;;;3.80;1.33;;;;;;;25.56;31.21;100967.03;4816885;29;20126;-84
2023/05/14 05:28:09;;;;;;;6.78;1.70;;;;;;;25.44;31.16;100976.19;4810527;29;20529;-85
2023/05/14 05:30:38;;;;;;;5.80;1.50;;;;;;;25.33;31.92;100980.94;4811786;29;20054;-84
2023/05/14 05:33:06;;;;;;;3.58;1.25;;;;;;;25.22;31.96;100971.53;4813798;29;20455;-83
2023/05/14 05:35:35;;;;;;;3.45;1.40;;;;;;;25.11;32.78;100970.06;4813172;29;20074;-82
2023/05/14 05:38:05;;;;;;;4.25;1.67;;;;;;;25.00;32.72;100972.97;4814023;29;20065;-83
2023/05/14 05:40:34;;;;;;;3.90;1.58;;;;;;;24.88;32.71;100972.41;4816847;29;20512;-81
2023/05/14 05:43:03;;;;;;;3.90;1.40;;;;;;;24.79;32.67;100964.69;4809003;29;20055;-82
2023/05/14 05:45:32;;;;;;;5.55;1.50;;;;;;;24.73;32.76;100966.63;4815686;29;20046;-83
2023/05/14 05:48:00;;;;;;;4.10;1.70;;;;;;;24.65;32.00;100969.50;4818212;29;20058;-82
2023/05/14 05:50:29;;;;;;;4.80;1.60;;;;;;;24.59;31.96;100967.00;4811551;29;20130;-82
2023/05/14 05:52:58;;;;;;;2.97;1.20;;;;;;;24.49;31.11;100966.34;4819561;29;20058;-83
2023/05/14 05:55:28;;;;;;;5.13;1.58;;;;;;;24.43;31.18;100964.69;4817912;29;20061;-84
2023/05/14 05:57:56;;;;;;;2.13;1.20;;;;;;;24.29;31.42;100958.00;4820867;29;20060;-84
2023/05/14 06:00:25;;;;;;;2.95;1.30;;;;;;;24.28;31.27;100962.44;4817352;29;20054;-83
2023/05/14 06:02:55;;;;;;;3.78;1.58;;;;;;;24.24;31.22;100966.91;4816329;29;20144;-83
2023/05/14 06:05:23;;;;;;;4.95;1.50;;;;;;;24.20;31.98;100954.66;4821406;29;20078;-84
2023/05/14 06:07:52;;;;;;;5.72;1.58;;;;;;;24.13;32.53;100954.84;4822827;29;20055;-83
2023/05/14 06:10:21;;;;;;;9.40;1.67;;;;;;;24.08;33.00;100964.69;4813050;29;20141;-85
2023/05/14 06:13:18;;;;;;;3.63;1.42;;;;;;;24.00;34.24;100956.91;4819276;29;20149;-88
2023/05/14 06:15:50;;;;;;;4.47;1.10;;;;;;;23.91;34.60;100957.13;4821410;29;20058;-87
2023/05/14 06:18:19;;;;;;;4.82;1.55;;;;;;;23.82;34.43;100960.81;4817042;29;20106;-88
2023/05/14 06:20:58;;;;;;;6.95;1.50;;;;;;;23.72;34.70;100949.56;4820887;29;20677;-87
2023/05/14 06:23:33;;;;;;;3.42;1.50;;;;;;;23.70;34.26;100948.72;4823725;29;20050;-87
2023/05/14 06:26:02;;;;;;;3.05;1.30;;;;;;;23.63;34.52;100949.75;4822555;29;20059;-87
2023/05/14 06:28:33;;;;;;;8.05;1.40;;;;;;;23.60;34.99;100952.47;4820590;29;20058;-87
2023/05/14 06:31:01;;;;;;;3.50;1.40;;;;;;;23.54;34.65;100953.47;4819336;29;20050;-86
2023/05/14 06:33:38;;;;;;;5.13;1.25;;;;;;;23.47;34.68;100946.56;4818549;29;20054;-89
2023/05/14 06:36:21;;;;;;;6.00;1.33;;;;;;;23.44;34.96;100945.78;4824734;29;20501;-86
2023/05/14 06:39:11;;;;;;;3.97;1.45;;;;;;;23.35;34.60;100945.06;4827108;29;20077;-86
2023/05/14 06:41:47;;;;;;;6.55;1.40;;;;;;;23.35;34.33;100955.63;4822550;29;20065;-87
2023/05/14 06:44:25;;;;;;;2.70;1.25;;;;;;;23.31;35.16;100951.31;4821903;29;20070;-86
2023/05/14 06:46:58;;;;;;;6.18;1.60;;;;;;;23.27;34.51;100949.63;4825028;29;20054;-86
2023/05/14 06:49:27;;;;;;;4.00;1.50;;;;;;;23.26;35.02;100942.59;4818943;29;20054;-87
2023/05/14 06:51:58;;;;;;;5.03;1.50;;;;;;;23.23;35.65;100940.03;4820382;29;21324;-86
2023/05/14 06:54:33;;;;;;;5.35;1.75;;;;;;;23.15;34.78;100940.19;4813785;29;20054;-84
2023/05/14 06:57:20;;;;;;;4.82;1.42;;;;;;;23.18;34.17;100940.13;4822648;29;20587;-85
2023/05/14 06:59:57;;;;;;;5.68;1.20;;;;;;;23.16;34.10;100935.78;4814566;29;20523;-85
2023/05/14 07:02:43;;;;;;;3.03;1.50;;;;;;;23.18;35.46;100934.84;4816144;29;20050;-86
2023/05/14 07:05:15;;;;;;;3.25;1.35;;;;;;;23.09;35.67;100935.03;4819442;29;20059;-86
2023/05/14 07:07:44;;;;;;;4.10;1.60;;;;;;;23.06;34.88;100940.34;4820402;29;20058;-85
2023/05/14 07:10:13;;;;;;;3.92;1.45;;;;;;;23.01;35.46;100950.13;4816552;29;20165;-85
2023/05/14 07:12:41;;;;;;;2.90;1.40;;;;;;;22.91;35.33;100938.00;4812099;29;20109;-87
2023/05/14 07:15:12;;;;;;;3.47;1.80;;;;;;;22.85;35.11;100927.53;4817014;29;20050;-86
2023/05/14 07:17:58;;;;;;;3.10;1.55;;;;;;;22.81;35.34;100942.53;4812977;29;20061;-86
2023/05/14 07:20:29;;;;;;;7.28;2.03;;;;;;;22.79;34.66;100937.31;4815542;29;20061;-85
2023/05/14 07:23:08;;;;;;;5.60;1.63;;;;;;;22.76;34.83;100934.72;4810913;29;20065;-84
2023/05/14 07:25:36;;;;;;;6.70;1.90;;;;;;;22.75;34.70;100930.34;4807372;29;20089;-84
2023/05/14 07:28:08;;;;;;;3.53;1.80;;;;;;;22.72;34.77;100925.16;4814930;29;20089;-85
2023/05/14 07:30:38;;;;;;;4.60;1.60;;;;;;;22.73;34.59;100936.56;4807592;29;20169;-85
2023/05/14 07:33:12;;;;;;;3.67;1.50;;;;;;;22.66;34.79;100919.97;4821910;29;20058;-84
2023/05/14 07:35:42;;;;;;;4.05;1.65;;;;;;;22.66;35.77;100922.59;4823110;29;20066;-88
2023/05/14 07:38:11;;;;;;;3.83;1.80;;;;;;;22.62;36.09;100917.41;4807199;29;20078;-86
2023/05/14 07:40:42;;;;;;;4.60;1.65;;;;;;;22.55;35.43;100911.38;4819765;29;20085;-85
2023/05/14 07:43:11;;;;;;;3.38;1.50;;;;;;;22.51;35.09;100907.03;4820946;29;20169;-85
2023/05/14 07:45:44;;;;;;;2.42;1.40;;;;;;;22.56;34.57;100918.38;4817914;29;20054;-86
2023/05/14 07:48:15;;;;;;;3.40;1.50;;;;;;;22.53;34.10;100907.88;4820797;29;20073;-85
2023/05/14 07:50:44;;;;;;;3.05;1.38;;;;;;;22.54;34.77;100901.72;4815963;29;20077;-85
2023/05/14 07:53:22;;;;;;;4.45;1.33;;;;;;;22.58;35.09;100914.81;4818097;29;20556;-86
2023/05/14 07:56:00;;;;;;;3.95;1.58;;;;;;;22.58;36.48;100916.59;4818582;29;20054;-85
2023/05/14 07:58:34;;;;;;;5.90;1.40;;;;;;;22.58;36.03;100912.16;4819616;29;20533;-84
2023/05/14 08:01:07;;;;;;;4.25;1.40;;;;;;;22.51;36.62;100902.63;4818902;29;20145;-87
2023/05/14 08:03:39;;;;;;;6.03;1.50;;;;;;;22.47;35.73;100895.69;4821795;29;20566;-85
2023/05/14 08:06:11;;;;;;;3.78;1.40;;;;;;;22.43;36.18;100895.78;4822188;29;20058;-85
2023/05/14 08:08:40;;;;;;;3.78;1.50;;;;;;;22.43;36.49;100901.91;4820397;29;20686;-85
2023/05/14 08:11:08;;;;;;;2.45;1.13;;;;;;;22.43;35.83;100899.28;4822891;29;20145;-84
2023/05/14 08:13:40;;;;;;;4.50;1.40;;;;;;;22.41;36.02;100898.44;4826891;29;20071;-85
2023/05/14 08:16:10;;;;;;;6.70;1.67;;;;;;;22.40;35.64;100893.19;4823240;29;20062;-86
2023/05/14 08:18:42;;;;;;;2.80;1.42;;;;;;;22.33;35.80;100890.66;4829116;29;20066;-85
2023/05/14 08:21:11;;;;;;;3.90;1.30;;;;;;;22.35;35.25;100887.97;4824492;29;20058;-86
2023/05/14 08:23:39;;;;;;;6.50;1.60;;;;;;;22.32;34.74;100888.91;4828133;29;20081;-85
2023/05/14 08:26:08;;;;;;;2.83;1.40;;;;;;;22.34;35.25;100895.03;4821309;29;20046;-86
2023/05/14 08:28:39;;;;;;;2.35;1.30;;;;;;;22.30;34.76;100880.16;4830315;29;20076;-85
2023/05/14 08:31:19;;;;;;;5.72;1.30;;;;;;;22.32;36.19;100883.63;4817211;29;20051;-85
2023/05/14 08:33:55;;;;;;;5.13;1.20;;;;;;;22.33;35.74;100874.84;4819402;29;20057;-85
2023/05/14 08:36:28;;;;;;;6.28;1.95;;;;;;;22.26;36.43;100878.47;4818638;29;20051;-84
2023/05/14 08:39:00;;;;;;;5.63;1.48;;;;;;;22.29;35.64;100882.84;4818413;29;20773;-85
2023/05/14 08:41:36;;;;;;;3.13;1.40;;;;;;;22.24;36.46;100882.00;4815101;29;20871;-85
2023/05/14 08:44:11;;;;;;;5.53;1.35;;;;;;;22.26;36.24;100889.00;4820585;29;20303;-85
2023/05/14 08:46:52;;;;;;;3.33;1.50;;;;;;;22.23;36.04;100875.88;4818654;29;20061;-84
2023/05/14 08:49:43;;;;;;;4.30;1.40;;;;;;;22.18;35.30;100878.56;4813351;29;20181;-85
2023/05/14 08:52:25;;;;;;;6.22;1.35;;;;;;;22.19;36.04;100874.16;4807388;29;20049;-84
2023/05/14 08:55:04;;;;;;;4.83;1.53;;;;;;;22.17;35.71;100881.22;4816617;29;20445;-86
2023/05/14 08:57:42;;;;;;;5.78;1.27;;;;;;;22.12;36.33;100872.53;4814388;29;20054;-85
2023/05/14 09:00:12;;;;;;;3.63;1.58;;;;;;;22.07;35.34;100887.53;4814208;29;20157;-85
2023/05/14 09:02:47;;;;;;;6.13;1.88;;;;;;;22.06;36.25;100883.16;4819434;29;20062;-84
2023/05/14 09:05:37;;;;;;;5.40;1.67;;;;;;;22.00;36.24;100875.38;4818740;29;20042;-85
2023/05/14 09:08:06;;;;;;;3.17;1.10;;;;;;;21.95;36.90;100875.44;4821914;29;20050;-87
2023/05/14 09:10:35;;;;;;;4.57;1.75;;;;;;;21.92;37.27;100873.72;4826372;29;20054;-87
2023/05/14 09:13:12;;;;;;;4.43;1.70;;;;;;;21.89;37.47;100864.97;4822742;29;20034;-87
2023/05/14 09:15:50;;;;;;;6.57;2.03;;;;;;;21.84;37.95;100872.97;4829884;29;20080;-87
2023/05/14 09:18:29;;;;;;;2.63;1.50;;;;;;;21.80;35.98;100863.34;4834520;29;20058;-87
2023/05/14 09:20:59;;;;;;;4.93;1.83;;;;;;;21.78;35.31;100859.00;4807084;29;20077;-86
2023/05/14 09:23:28;;;;;;;4.85;1.45;;;;;;;21.84;35.36;100874.72;4818308;29;20078;-84
2023/05/14 09:25:56;;;;;;;3.17;1.38;;;;;;;21.86;35.15;100868.53;4818300;29;20050;-85
2023/05/14 09:28:26;;;;;;;6.53;1.50;;;;;;;21.88;35.54;100876.44;4813500;29;20055;-84
2023/05/14 09:30:56;;;;;;;5.63;1.42;;;;;;;21.91;35.09;100866.69;4823087;29;20126;-85
2023/05/14 09:33:29;;;;;;;2.88;1.30;;;;;;;21.94;35.74;100863.13;4822267;29;20083;-85
2023/05/14 09:36:07;;;;;;;2.97;1.35;;;;;;;21.94;36.07;100861.41;4817692;29;20145;-87
2023/05/14 09:38:43;;;;;;;3.65;1.73;;;;;;;21.93;35.99;100851.75;4819767;29;20059;-86
2023/05/14 09:41:12;;;;;;;4.15;1.40;;;;;;;21.94;36.40;100855.22;4824388;29;20115;-86
2023/05/14 09:43:42;;;;;;;2.13;1.30;;;;;;;21.94;35.96;100856.13;4818792;29;20058;-84
2023/05/14 09:46:10;;;;;;;3.45;1.42;;;;;;;21.92;35.52;100857.91;4814821;29;20053;-86
2023/05/14 09:48:43;;;;;;;6.30;1.45;;;;;;;21.91;35.64;100850.88;4815647;29;20061;-85
2023/05/14 09:51:14;;;;;;;4.05;1.50;;;;;;;21.85;35.95;100845.75;4816187;29;20078;-85
2023/05/14 09:53:45;;;;;;;2.20;1.33;;;;;;;21.87;35.05;100850.97;4815047;29;20055;-85
2023/05/14 09:56:17;;;;;;;3.33;1.45;;;;;;;21.85;36.01;100837.84;4819398;29;20388;-84
2023/05/14 09:58:46;;;;;;;2.50;1.30;;;;;;;21.87;35.56;100832.53;4818725;29;20089;-85
2023/05/14 10:01:18;;;;;;;2.70;1.30;;;;;;;21.84;35.59;100822.03;4816197;29;20054;-85
2023/05/14 10:04:20;;;;;;;4.03;1.27;;;;;;;21.86;35.33;100829.03;4819365;29;20054;-86
2023/05/14 10:06:58;;;;;;;9.30;1.80;;;;;;;21.85;35.95;100835.22;4817292;29;20061;-85
2023/05/14 10:09:32;;;;;;;3.22;1.38;;;;;;;21.83;35.96;100831.72;4817879;29;20065;-83
2023/05/14 10:12:05;;;;;;;6.47;1.70;;;;;;;21.84;35.95;100838.72;4818230;29;20053;-84
2023/05/14 10:14:52;;;;;;;3.53;1.30;;;;;;;21.81;36.03;100830.88;4821197;29;20055;-83
2023/05/14 10:17:38;;;;;;;4.53;1.42;;;;;;;21.82;35.35;100835.22;4819321;29;20089;-84
2023/05/14 10:20:15;;;;;;;2.80;1.30;;;;;;;21.82;35.26;100835.22;4815435;29;20047;-81
2023/05/14 10:22:45;;;;;;;3.03;1.30;;;;;;;21.82;35.95;100837.00;4820761;29;20054;-83
2023/05/14 10:25:17;;;;;;;3.53;1.20;;;;;;;21.79;35.81;100840.56;4820067;29;20058;-85
2023/05/14 10:27:46;;;;;;;2.27;1.07;;;;;;;21.80;36.00;100841.41;4812457;29;20058;-81
2023/05/14 10:30:15;;;;;;;6.07;1.70;;;;;;;21.78;36.11;100849.34;4816410;29;20059;-82
2023/05/14 10:32:44;;;;;;;8.02;1.83;;;;;;;21.75;36.04;100839.72;4814357;29;20074;-82
2023/05/14 10:35:24;;;;;;;4.30;1.50;;;;;;;21.75;35.67;100838.84;4814485;29;20111;-83
2023/05/14 10:37:57;;;;;;;2.72;1.20;;;;;;;21.74;36.27;100842.41;4812275;29;20059;-83
2023/05/14 10:40:26;;;;;;;3.15;1.70;;;;;;;21.72;36.68;100850.31;4816841;29;20112;-81
2023/05/14 10:42:56;;;;;;;2.40;1.02;;;;;;;21.70;36.37;100845.97;4817213;29;20109;-83
2023/05/14 10:45:25;;;;;;;4.72;1.33;;;;;;;21.67;35.93;100844.25;4817325;29;20528;-80
2023/05/14 10:47:53;;;;;;;3.40;1.20;;;;;;;21.67;35.76;100853.88;4815034;29;20603;-80
2023/05/14 10:50:22;;;;;;;2.33;1.30;;;;;;;21.65;35.94;100840.78;4817212;29;20062;-84
2023/05/14 10:52:54;;;;;;;3.53;1.52;;;;;;;21.64;36.20;100844.28;4820402;29;20509;-82
2023/05/14 10:55:24;;;;;;;4.80;2.15;;;;;;;21.62;36.22;100842.56;4821172;29;20054;-80
2023/05/14 10:57:53;;;;;;;2.00;1.30;;;;;;;21.63;35.90;100828.53;4815448;29;20141;-81
2023/05/14 11:00:27;;;;;;;3.05;1.30;;;;;;;21.62;35.93;100835.53;4811889;29;20054;-81
2023/05/14 11:02:58;;;;;;;2.75;1.40;;;;;;;21.64;36.01;100840.78;4813703;29;20114;-82
2023/05/14 11:05:27;;;;;;;4.03;1.30;;;;;;;21.64;35.78;100832.88;4817990;29;20117;-80
2023/05/14 11:07:58;;;;;;;2.53;1.40;;;;;;;21.65;35.53;100837.28;4821369;29;20129;-81
2023/05/14 11:10:29;;;;;;;2.33;1.17;;;;;;;21.63;35.64;100820.63;4812180;29;20062;-80
2023/05/14 11:12:58;;;;;;;4.90;1.38;;;;;;;21.65;35.59;100830.22;4819469;29;20069;-81
2023/05/14 11:15:27;;;;;;;1.30;1.05;;;;;;;21.64;35.88;100822.34;4816638;29;20055;-80
2023/05/14 11:17:56;;;;;;;2.65;1.10;;;;;;;21.64;35.33;100819.72;4822517;29;20054;-79
2023/05/14 11:20:25;;;;;;;3.08;1.27;;;;;;;21.66;35.11;100820.56;4819787;29;20050;-80
2023/05/14 11:22:54;;;;;;;4.85;1.20;;;;;;;21.67;35.47;100824.91;4833471;29;20058;-80
2023/05/14 11:25:24;;;;;;;5.13;1.67;;;;;;;21.66;35.51;100813.53;4809208;29;20489;-80
2023/05/14 11:27:57;;;;;;;2.47;1.00;;;;;;;21.69;35.02;100817.88;4817545;29;20058;-80
2023/05/14 11:30:28;;;;;;;3.38;1.17;;;;;;;21.69;35.38;100812.59;4805784;29;20047;-81
2023/05/14 11:32:56;;;;;;;5.05;1.30;;;;;;;21.70;35.05;100806.47;4816390;29;20055;-81
2023/05/14 11:35:26;;;;;;;2.13;1.20;;;;;;;21.72;35.15;100807.31;4808101;29;20055;-83
2023/05/14 11:37:54;;;;;;;2.60;1.13;;;;;;;21.71;35.43;100806.41;4819022;29;20117;-82
2023/05/14 11:40:23;;;;;;;2.22;1.05;;;;;;;21.70;35.25;100809.09;4813387;29;20712;-81
2023/05/14 11:42:54;;;;;;;4.28;1.30;;;;;;;21.66;35.00;100802.13;4813807;29;20065;-81